createdAt,value
2023-05-15T00:00:47.222Z,100854.55
2023-05-15T00:03:33.585Z,100856.89
2023-05-15T00:06:06.309Z,100865.63
2023-05-15T00:08:38.540Z,100870.46
2023-05-15T00:11:10.795Z,100870.39
2023-05-15T00:13:43.125Z,100864.73
2023-05-15T00:16:15.353Z,100862.74
2023-05-15T00:18:47.687Z,100853.92
2023-05-15T00:21:20.060Z,100847.66
2023-05-15T00:23:54.154Z,100852.04
2023-05-15T00:26:27.316Z,100848.10
2023-05-15T00:28:59.556Z,100848.09
2023-05-15T00:31:33.310Z,100838.35
2023-05-15T00:34:05.508Z,100832.64
2023-05-15T00:36:37.847Z,100831.11
2023-05-15T00:39:10.092Z,100830.98
2023-05-15T00:41:44.926Z,100826.20
2023-05-15T00:44:20.208Z,100814.98
2023-05-15T00:46:54.383Z,100808.70
2023-05-15T00:49:29.627Z,100802.83
2023-05-15T00:52:03.908Z,100802.26
2023-05-15T00:54:36.667Z,100799.41
2023-05-15T00:57:11.854Z,100785.18
2023-05-15T00:59:46.865Z,100786.22
2023-05-15T01:02:21.277Z,100779.17
2023-05-15T01:04:53.590Z,100767.42
2023-05-15T01:07:25.907Z,100771.98
2023-05-15T01:09:59.227Z,100771.83
2023-05-15T01:12:33.433Z,100773.75
2023-05-15T01:15:06.287Z,100768.64
2023-05-15T01:17:38.668Z,100770.34
2023-05-15T01:20:14.806Z,100768.39
2023-05-15T01:22:57.063Z,100762.88
2023-05-15T01:26:04.803Z,100761.77
2023-05-15T01:28:41.236Z,100759.65
2023-05-15T01:31:17.922Z,100759.73
2023-05-15T01:33:56.993Z,100764.04
2023-05-15T01:36:37.331Z,100768.73
2023-05-15T01:39:12.328Z,100775.58
2023-05-15T01:41:52.656Z,100777.38
2023-05-15T01:44:29.660Z,100779.15
2023-05-15T01:47:06.585Z,100792.06
2023-05-15T01:49:39.818Z,100796.33
2023-05-15T01:52:18.911Z,100795.35
2023-05-15T01:54:53.038Z,100799.85
2023-05-15T01:57:26.829Z,100795.54
2023-05-15T02:00:00.698Z,100787.27
2023-05-15T02:02:34.216Z,100791.32
2023-05-15T02:05:08.905Z,100785.41
2023-05-15T02:07:42.496Z,100777.10
2023-05-15T02:10:15.776Z,100776.45
2023-05-15T02:12:49.633Z,100776.66
2023-05-15T02:15:23.407Z,100776.16
2023-05-15T02:17:56.221Z,100775.44
2023-05-15T02:20:28.340Z,100790.11
2023-05-15T02:23:00.372Z,100802.25
2023-05-15T02:25:44.499Z,100798.05
2023-05-15T02:28:25.612Z,100786.82
2023-05-15T02:31:02.927Z,100788.62
2023-05-15T02:33:50.294Z,100789.37
2023-05-15T02:36:26.598Z,100783.36
2023-05-15T02:39:00.141Z,100786.44
2023-05-15T02:41:35.511Z,100786.15
2023-05-15T02:44:08.844Z,100791.07
2023-05-15T02:46:42.594Z,100796.83
2023-05-15T02:49:15.538Z,100803.01
2023-05-15T02:51:47.818Z,100796.55
2023-05-15T02:54:21.251Z,100785.22
2023-05-15T02:56:53.414Z,100780.27
2023-05-15T02:59:25.997Z,100768.30
2023-05-15T03:01:58.310Z,100760.88
2023-05-15T03:04:30.462Z,100769.27
2023-05-15T03:07:02.740Z,100770.63
2023-05-15T03:09:34.898Z,100775.34
2023-05-15T03:12:07.990Z,100764.45
2023-05-15T03:14:40.214Z,100770.77
2023-05-15T03:17:12.912Z,100770.34
2023-05-15T03:19:45.139Z,100772.96
2023-05-15T03:22:17.633Z,100781.38
2023-05-15T03:24:50.095Z,100786.31
2023-05-15T03:27:22.262Z,100788.83
2023-05-15T03:29:54.554Z,100795.90
2023-05-15T03:32:26.845Z,100799.36
2023-05-15T03:34:58.917Z,100792.19
2023-05-15T03:37:31.368Z,100777.35
2023-05-15T03:40:04.631Z,100763.13
2023-05-15T03:42:37.096Z,100759.93
2023-05-15T03:45:11.374Z,100755.89
2023-05-15T03:47:44.084Z,100761.88
2023-05-15T03:50:16.530Z,100765.08
2023-05-15T03:52:48.916Z,100759.02
2023-05-15T03:55:21.060Z,100757.18
2023-05-15T03:57:53.348Z,100753.08
2023-05-15T04:00:26.239Z,100741.89
2023-05-15T04:02:58.754Z,100729.58
2023-05-15T04:05:31.183Z,100728.54
2023-05-15T04:08:03.466Z,100729.42
2023-05-15T04:10:35.610Z,100728.09
2023-05-15T04:13:07.988Z,100730.24
2023-05-15T04:15:41.764Z,100726.23
2023-05-15T04:18:13.997Z,100731.05
2023-05-15T04:20:46.206Z,100738.77
2023-05-15T04:23:18.368Z,100751.52
2023-05-15T04:25:51.528Z,100760.80
2023-05-15T04:28:23.832Z,100764.16
2023-05-15T04:30:56.078Z,100765.73
2023-05-15T04:33:28.468Z,100766.08
2023-05-15T04:36:00.756Z,100771.27
2023-05-15T04:38:33.425Z,100777.89
2023-05-15T04:41:05.879Z,100785.98
2023-05-15T04:43:38.306Z,100787.52
2023-05-15T04:46:11.702Z,100789.25
2023-05-15T04:48:44.039Z,100791.23
2023-05-15T04:51:16.407Z,100791.11
2023-05-15T04:53:48.454Z,100797.86
2023-05-15T04:56:21.447Z,100798.42
2023-05-15T04:58:53.752Z,100802.11
2023-05-15T05:01:26.128Z,100805.87
2023-05-15T05:03:58.338Z,100797.42
2023-05-15T05:06:30.794Z,100789.34
2023-05-15T05:09:03.455Z,100781.29
2023-05-15T05:11:35.985Z,100771.17
2023-05-15T05:14:08.697Z,100765.66
2023-05-15T05:16:41.756Z,100762.34
2023-05-15T05:19:14.174Z,100756.77
2023-05-15T05:21:47.141Z,100755.36
2023-05-15T05:24:19.686Z,100762.91
2023-05-15T05:26:52.574Z,100762.83
2023-05-15T05:29:25.022Z,100765.14
2023-05-15T05:31:57.456Z,100763.02
2023-05-15T05:34:30.145Z,100763.20
2023-05-15T05:37:02.691Z,100770.12
2023-05-15T05:39:35.137Z,100769.61
2023-05-15T05:42:08.321Z,100771.74
2023-05-15T05:44:40.493Z,100776.75
2023-05-15T05:47:12.851Z,100772.66
2023-05-15T05:49:48.226Z,100779.70
2023-05-15T05:52:20.542Z,100784.08
2023-05-15T05:54:52.756Z,100794.52
2023-05-15T05:57:25.027Z,100795.81
2023-05-15T05:59:57.534Z,100796.44
2023-05-15T06:02:29.912Z,100798.45
2023-05-15T06:05:02.126Z,100801.15
2023-05-15T06:07:34.354Z,100800.79
2023-05-15T06:10:09.774Z,100799.68
2023-05-15T06:12:42.598Z,100797.45
2023-05-15T06:15:15.718Z,100795.48
2023-05-15T06:17:47.817Z,100799.48
2023-05-15T06:20:22.029Z,100791.31
2023-05-15T06:22:54.267Z,100780.10
2023-05-15T06:25:26.895Z,100777.55
2023-05-15T06:27:59.047Z,100770.77
2023-05-15T06:30:31.331Z,100766.23
2023-05-15T06:33:03.722Z,100761.63
2023-05-15T06:35:35.889Z,100763.50
2023-05-15T06:38:08.322Z,100765.57
2023-05-15T06:40:40.557Z,100764.33
2023-05-15T06:43:12.694Z,100760.67
2023-05-15T06:45:44.916Z,100751.30
2023-05-15T06:48:17.183Z,100748.49
2023-05-15T06:50:49.493Z,100742.28
2023-05-15T06:53:21.965Z,100731.84
2023-05-15T06:55:54.309Z,100733.23
2023-05-15T06:58:27.036Z,100730.24
2023-05-15T07:00:59.520Z,100725.24
2023-05-15T07:03:33.263Z,100723.72
2023-05-15T07:06:05.567Z,100724.06
2023-05-15T07:08:37.908Z,100726.59
2023-05-15T07:11:10.117Z,100728.40
2023-05-15T07:13:42.361Z,100727.73
2023-05-15T07:16:14.679Z,100733.65
2023-05-15T07:18:47.182Z,100737.38
2023-05-15T07:21:19.604Z,100736.95
2023-05-15T07:23:51.833Z,100743.05
2023-05-15T07:26:32.845Z,100738.02
2023-05-15T07:29:09.868Z,100729.33
2023-05-15T07:31:44.857Z,100729.03
2023-05-15T07:34:17.260Z,100730.66
2023-05-15T07:36:49.597Z,100729.80
2023-05-15T07:39:21.873Z,100724.55
2023-05-15T07:41:54.704Z,100719.94
2023-05-15T07:47:20.669Z,100720.78
2023-05-15T07:49:52.882Z,100719.34
2023-05-15T07:52:25.520Z,100721.61
2023-05-15T07:54:57.850Z,100721.61
2023-05-15T07:57:30.033Z,100724.03
2023-05-15T08:00:06.819Z,100724.88
2023-05-15T08:02:39.099Z,100729.84
2023-05-15T08:05:12.188Z,100737.48
2023-05-15T08:07:44.816Z,100735.79
2023-05-15T08:10:16.997Z,100737.06
2023-05-15T08:12:50.589Z,100732.73
2023-05-15T08:15:23.500Z,100735.36
2023-05-15T08:17:56.000Z,100732.01
2023-05-15T08:20:28.426Z,100724.98
2023-05-15T08:25:44.820Z,100711.75
2023-05-15T08:28:17.974Z,100712.06
2023-05-15T08:30:50.113Z,100711.68
2023-05-15T08:33:22.486Z,100711.31
2023-05-15T08:35:54.859Z,100714.37
2023-05-15T08:38:27.218Z,100715.50
2023-05-15T08:41:04.018Z,100719.36
2023-05-15T08:43:39.759Z,100719.81
2023-05-15T08:46:12.665Z,100717.58
2023-05-15T08:48:45.437Z,100710.71
2023-05-15T08:51:19.803Z,100707.52
2023-05-15T08:53:52.976Z,100693.27
2023-05-15T08:56:25.347Z,100684.48
2023-05-15T08:58:57.870Z,100675.44
2023-05-15T09:01:31.571Z,100668.56
2023-05-15T09:04:04.125Z,100672.55
2023-05-15T09:06:37.532Z,100677.98
2023-05-15T09:09:13.650Z,100669.14
2023-05-15T09:11:49.310Z,100660.14
2023-05-15T09:14:21.603Z,100659.38
2023-05-15T09:16:53.971Z,100668.81
2023-05-15T09:19:26.064Z,100673.13
2023-05-15T09:22:16.598Z,100672.89
2023-05-15T09:24:49.131Z,100668.65
2023-05-15T09:27:22.069Z,100675.11
2023-05-15T09:29:56.602Z,100668.92
2023-05-15T09:32:29.927Z,100673.77
2023-05-15T09:35:02.196Z,100680.08
2023-05-15T09:37:35.715Z,100680.86
2023-05-15T09:40:12.339Z,100677.91
2023-05-15T09:42:52.592Z,100677.90
2023-05-15T09:45:25.939Z,100676.36
2023-05-15T09:48:00.878Z,100673.52
2023-05-15T09:50:38.147Z,100673.84
2023-05-15T09:53:14.520Z,100667.20
2023-05-15T09:55:48.979Z,100668.04
2023-05-15T09:58:23.490Z,100667.92
2023-05-15T10:00:55.772Z,100662.33
2023-05-15T10:03:28.098Z,100665.21
2023-05-15T10:06:04.880Z,100661.15
2023-05-15T10:08:37.850Z,100660.55
2023-05-15T10:11:10.760Z,100653.08
2023-05-15T10:13:43.544Z,100652.45
2023-05-15T10:16:17.139Z,100655.38
2023-05-15T10:18:52.760Z,100651.75
2023-05-15T10:21:24.190Z,100648.83
2023-05-15T10:23:58.999Z,100641.88
2023-05-15T10:26:38.216Z,100639.70
2023-05-15T10:29:13.210Z,100634.30
2023-05-15T10:31:46.032Z,100621.37
2023-05-15T10:34:20.001Z,100618.30
2023-05-15T10:36:53.037Z,100611.63
2023-05-15T10:39:28.706Z,100610.55
2023-05-15T10:42:03.145Z,100622.34
2023-05-15T10:44:35.463Z,100614.54
2023-05-15T10:47:08.881Z,100605.89
2023-05-15T10:49:41.638Z,100595.80
2023-05-15T10:52:13.887Z,100589.55
2023-05-15T10:54:46.151Z,100596.60
2023-05-15T10:57:18.716Z,100599.33
2023-05-15T10:59:51.744Z,100602.13
2023-05-15T11:02:25.543Z,100600.50
2023-05-15T11:05:02.032Z,100600.10
2023-05-15T11:07:34.499Z,100610.25
2023-05-15T11:10:40.170Z,100611.50
2023-05-15T11:13:12.931Z,100612.34
2023-05-15T11:15:49.320Z,100613.70
2023-05-15T11:18:22.882Z,100610.54
2023-05-15T11:21:12.217Z,100614.75
2023-05-15T11:23:48.441Z,100620.65
2023-05-15T11:26:35.433Z,100612.59
2023-05-15T11:29:21.359Z,100619.17
2023-05-15T11:31:52.029Z,100619.98
2023-05-15T11:34:34.026Z,100619.33
2023-05-15T11:37:11.250Z,100622.07
2023-05-15T11:39:45.330Z,100619.21
2023-05-15T11:42:18.690Z,100617.46
2023-05-15T11:44:51.204Z,100613.71
2023-05-15T11:47:24.573Z,100615.03
2023-05-15T11:49:56.993Z,100613.34
2023-05-15T11:52:31.969Z,100615.13
2023-05-15T11:55:04.991Z,100602.00
2023-05-15T11:57:38.868Z,100606.69
2023-05-15T12:00:13.771Z,100605.69
2023-05-15T12:02:46.131Z,100602.19
2023-05-15T12:05:18.576Z,100598.54
2023-05-15T12:07:51.313Z,100600.08
2023-05-15T12:13:14.521Z,100588.35
2023-05-15T12:15:47.953Z,100581.70
2023-05-15T12:18:20.240Z,100585.25
2023-05-15T12:20:55.204Z,100583.56
2023-05-15T12:23:28.911Z,100578.65
2023-05-15T12:26:03.956Z,100580.52
2023-05-15T12:28:37.991Z,100587.80
2023-05-15T12:31:13.387Z,100589.09
2023-05-15T12:33:46.287Z,100589.13
2023-05-15T12:36:21.445Z,100587.95
2023-05-15T12:38:54.016Z,100580.02
2023-05-15T12:41:30.241Z,100585.30
2023-05-15T12:44:02.660Z,100580.23
2023-05-15T12:46:35.603Z,100581.17
2023-05-15T12:49:07.843Z,100580.27
2023-05-15T12:51:45.768Z,100583.40
2023-05-15T12:54:21.852Z,100581.36
2023-05-15T12:56:57.003Z,100583.15
2023-05-15T12:59:30.083Z,100577.66
2023-05-15T13:02:03.105Z,100571.21
2023-05-15T13:04:37.987Z,100569.69
2023-05-15T13:07:12.617Z,100563.77
2023-05-15T13:09:46.429Z,100563.70
2023-05-15T13:12:23.191Z,100559.72
2023-05-15T13:14:55.540Z,100558.48
2023-05-15T13:17:30.823Z,100549.64
2023-05-15T13:20:01.465Z,100549.52
2023-05-15T13:22:33.896Z,100549.18
2023-05-15T13:25:07.364Z,100552.20
2023-05-15T13:27:39.642Z,100550.14
2023-05-15T13:30:13.849Z,100550.73
2023-05-15T13:32:46.629Z,100552.54
2023-05-15T13:35:19.338Z,100550.97
2023-05-15T13:37:51.659Z,100548.91
2023-05-15T13:40:24.735Z,100543.74
2023-05-15T13:42:57.045Z,100533.33
2023-05-15T13:45:29.311Z,100530.05
2023-05-15T13:48:01.671Z,100532.35
2023-05-15T13:50:34.145Z,100540.23
2023-05-15T13:53:06.472Z,100540.08
2023-05-15T13:55:38.892Z,100535.70
2023-05-15T13:58:11.773Z,100537.31
2023-05-15T14:00:45.524Z,100533.20
2023-05-15T14:03:17.625Z,100525.58
2023-05-15T14:05:49.852Z,100516.42
2023-05-15T14:08:22.109Z,100515.89
2023-05-15T14:10:54.360Z,100511.35
2023-05-15T14:13:26.566Z,100513.90
2023-05-15T14:15:59.169Z,100507.29
2023-05-15T14:18:32.175Z,100503.05
2023-05-15T14:21:04.774Z,100501.52
2023-05-15T14:23:37.416Z,100502.99
2023-05-15T14:26:09.756Z,100507.00
2023-05-15T14:28:41.978Z,100510.35
2023-05-15T14:31:14.309Z,100515.66
2023-05-15T14:33:46.612Z,100525.95
2023-05-15T14:36:19.041Z,100534.90
2023-05-15T14:38:51.498Z,100541.45
2023-05-15T14:41:23.870Z,100541.23
2023-05-15T14:43:56.265Z,100533.79
2023-05-15T14:46:28.591Z,100535.75
2023-05-15T14:49:00.795Z,100539.38
2023-05-15T14:51:33.521Z,100538.11
2023-05-15T14:54:06.121Z,100540.85
2023-05-15T14:56:38.204Z,100538.97
2023-05-15T14:59:10.346Z,100538.08
2023-05-15T15:01:43.016Z,100533.95
2023-05-15T15:04:15.591Z,100529.83
2023-05-15T15:06:49.844Z,100526.63
2023-05-15T15:09:21.984Z,100518.38
2023-05-15T15:11:54.269Z,100518.39
2023-05-15T15:14:27.404Z,100508.80
2023-05-15T15:16:59.983Z,100506.23
2023-05-15T15:19:32.337Z,100506.80
2023-05-15T15:22:04.620Z,100507.59
2023-05-15T15:24:36.831Z,100507.23
2023-05-15T15:27:09.151Z,100507.25
2023-05-15T15:29:41.388Z,100506.40
2023-05-15T15:32:13.659Z,100500.08
2023-05-15T15:34:46.114Z,100497.21
2023-05-15T15:37:18.448Z,100494.53
2023-05-15T15:39:50.691Z,100491.84
2023-05-15T15:42:22.757Z,100497.57
2023-05-15T15:44:54.895Z,100495.89
2023-05-15T15:47:29.729Z,100504.20
2023-05-15T15:50:02.268Z,100513.14
2023-05-15T15:52:34.699Z,100516.18
2023-05-15T15:55:08.756Z,100514.70
2023-05-15T15:57:41.113Z,100511.70
2023-05-15T16:00:15.173Z,100510.98
2023-05-15T16:02:47.700Z,100507.62
2023-05-15T16:05:19.905Z,100516.17
2023-05-15T16:07:52.143Z,100529.30
2023-05-15T16:10:24.490Z,100534.30
2023-05-15T16:12:57.089Z,100535.61
2023-05-15T16:15:29.510Z,100541.27
2023-05-15T16:18:01.837Z,100543.67
2023-05-15T16:20:35.331Z,100544.27
2023-05-15T16:23:09.589Z,100539.30
2023-05-15T16:25:41.935Z,100541.15
2023-05-15T16:28:14.755Z,100536.88
2023-05-15T16:30:49.577Z,100537.79
2023-05-15T16:33:22.894Z,100541.23
2023-05-15T16:35:55.215Z,100539.25
2023-05-15T16:38:27.512Z,100528.98
2023-05-15T16:40:59.617Z,100526.40
2023-05-15T16:43:31.782Z,100522.67
2023-05-15T16:46:04.511Z,100518.96
2023-05-15T16:48:37.243Z,100515.55
2023-05-15T16:51:09.824Z,100519.69
2023-05-15T16:53:42.132Z,100511.35
2023-05-15T16:56:14.428Z,100499.30
2023-05-15T16:58:46.590Z,100498.77
2023-05-15T17:01:19.060Z,100517.92
2023-05-15T17:03:52.855Z,100535.36
2023-05-15T17:06:25.348Z,100541.38
2023-05-15T17:08:57.491Z,100536.16
2023-05-15T17:11:29.824Z,100539.71
2023-05-15T17:14:02.173Z,100538.71
2023-05-15T17:16:34.542Z,100531.91
2023-05-15T17:19:06.683Z,100527.85
2023-05-15T17:21:39.133Z,100524.65
2023-05-15T17:24:11.578Z,100543.42
2023-05-15T17:26:43.814Z,100567.11
2023-05-15T17:29:16.037Z,100574.05
2023-05-15T17:31:48.668Z,100563.05
2023-05-15T17:34:20.874Z,100554.00
2023-05-15T17:36:53.142Z,100555.25
2023-05-15T17:39:25.599Z,100550.94
2023-05-15T17:41:57.941Z,100527.59
2023-05-15T17:44:31.233Z,100489.86
2023-05-15T17:47:03.574Z,100452.00
2023-05-15T17:49:35.690Z,100443.61
2023-05-15T17:52:08.817Z,100474.38
2023-05-15T17:54:41.193Z,100497.65
2023-05-15T17:57:13.526Z,100525.71
2023-05-15T17:59:45.642Z,100545.00
2023-05-15T18:02:17.934Z,100578.21
2023-05-15T18:04:51.172Z,100600.72
2023-05-15T18:07:23.318Z,100605.55
2023-05-15T18:09:55.648Z,100601.09
2023-05-15T18:12:27.901Z,100609.91
2023-05-15T18:15:00.064Z,100620.24
2023-05-15T18:17:32.410Z,100624.96
2023-05-15T18:20:05.766Z,100625.55
2023-05-15T18:22:38.412Z,100621.62
2023-05-15T18:25:11.172Z,100609.92
2023-05-15T18:27:43.355Z,100606.17
2023-05-15T18:30:16.575Z,100605.66
2023-05-15T18:32:48.804Z,100602.33
2023-05-15T18:35:21.355Z,100611.95
2023-05-15T18:37:53.789Z,100615.51
2023-05-15T18:40:26.576Z,100624.52
2023-05-15T18:42:59.278Z,100621.44
2023-05-15T18:45:31.640Z,100620.82
2023-05-15T18:48:03.780Z,100618.02
2023-05-15T18:50:36.217Z,100620.59
2023-05-15T18:53:08.384Z,100611.52
2023-05-15T18:55:40.688Z,100600.25
2023-05-15T18:58:12.893Z,100595.04
2023-05-15T19:00:45.200Z,100594.95
2023-05-15T19:03:17.511Z,100595.70
2023-05-15T19:05:50.043Z,100597.42
2023-05-15T19:08:22.292Z,100596.13
2023-05-15T19:10:54.726Z,100591.58
2023-05-15T19:13:29.965Z,100589.05
2023-05-15T19:16:03.272Z,100590.08
2023-05-15T19:18:35.477Z,100594.20
2023-05-15T19:21:08.032Z,100599.73
2023-05-15T19:23:40.288Z,100608.83
2023-05-15T19:26:12.482Z,100609.16
2023-05-15T19:28:44.797Z,100609.95
2023-05-15T19:31:27.824Z,100610.23
2023-05-15T19:34:03.898Z,100613.80
2023-05-15T19:36:36.218Z,100615.70
2023-05-15T19:39:08.523Z,100616.58
2023-05-15T19:41:40.847Z,100619.48
2023-05-15T19:44:13.300Z,100619.21
2023-05-15T19:46:46.694Z,100621.54
2023-05-15T19:49:18.932Z,100627.26
2023-05-15T19:51:51.656Z,100630.02
2023-05-15T19:54:24.055Z,100626.78
2023-05-15T19:56:58.645Z,100627.19
2023-05-15T19:59:31.088Z,100625.78
2023-05-15T20:02:05.259Z,100612.09
2023-05-15T20:04:38.029Z,100610.65
2023-05-15T20:07:10.182Z,100612.95
2023-05-15T20:09:42.486Z,100610.11
2023-05-15T20:12:14.566Z,100612.33
2023-05-15T20:14:52.294Z,100611.34
2023-05-15T20:17:24.740Z,100611.47
2023-05-15T20:19:59.197Z,100608.46
2023-05-15T20:22:31.671Z,100615.32
2023-05-15T20:25:04.514Z,100623.36
2023-05-15T20:27:36.814Z,100626.32
2023-05-15T20:30:10.871Z,100632.41
2023-05-15T20:32:43.098Z,100632.83
2023-05-15T20:35:16.124Z,100635.55
2023-05-15T20:37:48.797Z,100639.70
2023-05-15T20:40:23.034Z,100645.25
2023-05-15T20:42:56.957Z,100650.08
2023-05-15T20:45:29.683Z,100654.35
2023-05-15T20:48:01.941Z,100654.71
2023-05-15T20:50:34.259Z,100659.77
2023-05-15T20:53:07.037Z,100657.84
2023-05-15T20:55:39.366Z,100660.44
2023-05-15T20:58:11.728Z,100658.36
2023-05-15T21:00:43.936Z,100656.40
2023-05-15T21:03:16.348Z,100662.22
2023-05-15T21:05:49.966Z,100659.06
2023-05-15T21:08:22.244Z,100659.83
2023-05-15T21:10:55.720Z,100660.66
2023-05-15T21:13:28.357Z,100665.91
2023-05-15T21:16:00.585Z,100665.98
2023-05-15T21:18:32.970Z,100670.55
2023-05-15T21:21:07.237Z,100679.60
2023-05-15T21:23:39.472Z,100671.40
2023-05-15T21:26:12.190Z,100670.20
2023-05-15T21:28:44.469Z,100668.99
2023-05-15T21:31:16.556Z,100658.17
2023-05-15T21:33:48.790Z,100654.55
2023-05-15T21:36:21.069Z,100652.52
2023-05-15T21:38:53.452Z,100646.71
2023-05-15T21:41:26.376Z,100651.30
2023-05-15T21:43:58.609Z,100650.59
2023-05-15T21:46:30.860Z,100649.02
2023-05-15T21:49:03.888Z,100647.16
2023-05-15T21:51:36.222Z,100643.05
2023-05-15T21:54:08.595Z,100643.58
2023-05-15T21:56:41.318Z,100638.08
2023-05-15T21:59:14.670Z,100633.30
2023-05-15T22:01:47.071Z,100632.80
2023-05-15T22:04:19.559Z,100623.39
2023-05-15T22:06:52.058Z,100613.64
2023-05-15T22:09:24.268Z,100607.10
2023-05-15T22:11:56.578Z,100597.48
2023-05-15T22:14:35.142Z,100593.73
2023-05-15T22:17:07.681Z,100588.89
2023-05-15T22:19:42.404Z,100582.69
2023-05-15T22:22:15.009Z,100575.23
2023-05-15T22:24:47.288Z,100571.13
2023-05-15T22:27:19.838Z,100566.63
2023-05-15T22:29:52.217Z,100560.57
2023-05-15T22:32:24.515Z,100545.88
2023-05-15T22:34:57.064Z,100541.11
2023-05-15T22:37:29.246Z,100540.08
2023-05-15T22:40:01.614Z,100537.13
2023-05-15T22:42:33.878Z,100536.81
2023-05-15T22:45:07.261Z,100538.91
2023-05-15T22:47:40.125Z,100544.41
2023-05-15T22:50:13.367Z,100548.01
2023-05-15T22:52:45.896Z,100548.51
2023-05-15T22:55:21.220Z,100546.22
2023-05-15T22:57:53.456Z,100541.36
2023-05-15T23:00:26.280Z,100537.86
2023-05-15T23:02:59.063Z,100540.96
2023-05-15T23:05:31.314Z,100540.42
2023-05-15T23:08:56.628Z,100534.34
2023-05-15T23:11:29.512Z,100541.05
2023-05-15T23:14:02.167Z,100540.97
2023-05-15T23:16:34.435Z,100536.20
2023-05-15T23:19:06.766Z,100541.42
2023-05-15T23:21:39.489Z,100542.30
2023-05-15T23:24:11.778Z,100539.34
2023-05-15T23:26:44.421Z,100536.76
2023-05-15T23:29:16.802Z,100531.85
2023-05-15T23:31:49.078Z,100530.95
2023-05-15T23:34:21.490Z,100530.81
2023-05-15T23:36:53.703Z,100528.95
2023-05-15T23:39:25.856Z,100523.52
2023-05-15T23:42:00.199Z,100526.19
2023-05-15T23:44:32.617Z,100520.48
2023-05-15T23:47:05.339Z,100514.23
2023-05-15T23:49:37.493Z,100507.58
2023-05-15T23:52:10.184Z,100505.79
2023-05-15T23:54:42.295Z,100504.77
2023-05-15T23:57:14.456Z,100502.55
2023-05-15T23:59:46.761Z,100504.04
